Time;durP1;ratioP1;P1;durP2;ratioP2;P2;SDS_P1;SDS_P2;PMS_P1;PMS_P2;Temp;Humidity;BMP_temperature;BMP_pressure;BME280_temperature;BME280_humidity;BME280_pressure;Samples;Min_cycle;Max_cycle;Signal;HPM_P1;HPM_P2
2023/04/10 00:01:27;;;;;;;13.63;10.68;;;10.90;99.00;;;;;;5045136;28;20384;-44
2023/04/10 00:03:56;;;;;;;14.73;10.55;;;10.90;99.00;;;;;;5046063;28;20059;-43
2023/04/10 00:06:21;;;;;;;13.13;10.63;;;10.90;99.00;;;;;;5045543;28;20571;-44
2023/04/10 00:08:50;;;;;;;14.18;11.00;;;10.80;99.00;;;;;;5045227;28;20029;-44
2023/04/10 00:11:15;;;;;;;13.95;10.85;;;10.80;99.10;;;;;;5045827;28;20678;-44
2023/04/10 00:13:41;;;;;;;15.38;10.90;;;10.80;99.10;;;;;;5046677;28;20055;-44
2023/04/10 00:16:07;;;;;;;14.90;10.95;;;10.80;99.10;;;;;;5045596;28;20399;-44
2023/04/10 00:18:32;;;;;;;13.10;10.50;;;10.70;99.20;;;;;;5046766;28;20093;-43
2023/04/10 00:20:58;;;;;;;12.05;9.85;;;10.70;99.20;;;;;;5046246;28;20461;-44
2023/04/10 00:23:25;;;;;;;13.52;10.32;;;10.70;99.30;;;;;;5045739;28;20115;-43
2023/04/10 00:25:50;;;;;;;12.10;9.18;;;10.60;99.30;;;;;;5046499;28;20043;-43
2023/04/10 00:28:16;;;;;;;10.07;8.63;;;10.60;99.30;;;;;;5046173;28;20477;-43
2023/04/10 00:30:41;;;;;;;12.50;10.23;;;10.60;99.30;;;;;;5045416;28;20029;-43
2023/04/10 00:33:07;;;;;;;12.15;8.90;;;10.60;99.40;;;;;;5046519;28;20037;-44
2023/04/10 00:35:32;;;;;;;11.75;8.95;;;10.50;99.40;;;;;;5046072;28;20024;-44
2023/04/10 00:37:58;;;;;;;11.82;9.23;;;10.50;99.50;;;;;;5045949;28;20056;-44
2023/04/10 00:40:24;;;;;;;11.40;9.07;;;10.50;99.60;;;;;;5046073;28;20137;-44
2023/04/10 00:42:50;;;;;;;11.07;8.82;;;10.50;99.60;;;;;;5046056;28;20464;-42
2023/04/10 00:45:15;;;;;;;12.13;9.48;;;10.50;99.70;;;;;;5046049;28;20032;-44
2023/04/10 00:47:41;;;;;;;10.70;8.80;;;10.40;99.80;;;;;;5045058;28;20459;-44
2023/04/10 00:50:07;;;;;;;10.05;7.97;;;10.40;99.80;;;;;;5046352;28;20464;-44
2023/04/10 00:52:32;;;;;;;10.25;8.57;;;10.40;99.90;;;;;;5045444;28;20033;-44
2023/04/10 00:54:58;;;;;;;10.82;7.93;;;10.40;99.90;;;;;;5046331;28;20508;-43
2023/04/10 00:57:25;;;;;;;9.00;7.70;;;10.40;99.90;;;;;;5045931;28;20041;-43
2023/04/10 00:59:52;;;;;;;9.73;7.50;;;10.30;99.90;;;;;;5046028;28;20166;-44
2023/04/10 01:02:18;;;;;;;9.27;7.60;;;10.30;99.90;;;;;;5046602;28;20059;-47
2023/04/10 01:04:44;;;;;;;8.93;7.75;;;10.30;99.90;;;;;;5047286;28;20074;-44
2023/04/10 01:07:28;;;;;;;9.30;7.55;;;10.30;99.90;;;;;;5045259;28;20021;-44
2023/04/10 01:10:09;;;;;;;8.68;7.43;;;10.30;99.90;;;;;;5045759;28;20036;-42
2023/04/10 01:12:47;;;;;;;9.15;7.15;;;10.30;99.90;;;;;;5042620;28;20060;-43
2023/04/10 01:15:17;;;;;;;8.15;6.90;;;10.30;99.90;;;;;;5043373;28;20036;-42
2023/04/10 01:17:54;;;;;;;9.52;7.85;;;10.30;99.90;;;;;;5042848;28;20043;-44
2023/04/10 01:20:25;;;;;;;8.35;7.05;;;10.30;99.90;;;;;;5042155;28;20036;-44
2023/04/10 01:23:18;;;;;;;8.70;7.13;;;10.20;99.90;;;;;;5042347;28;20025;-44
2023/04/10 01:25:58;;;;;;;8.73;6.82;;;10.20;99.90;;;;;;5043046;28;20063;-44
2023/04/10 01:28:37;;;;;;;8.27;7.20;;;10.20;99.90;;;;;;5042638;28;20032;-43
2023/04/10 01:31:05;;;;;;;9.27;7.53;;;10.20;99.90;;;;;;5023021;28;20026;-43
2023/04/10 01:33:49;;;;;;;7.97;7.00;;;10.20;99.90;;;;;;5036293;28;20028;-43
2023/04/10 01:36:23;;;;;;;9.55;7.97;;;10.20;99.90;;;;;;5022971;28;20126;-44
2023/04/10 01:38:50;;;;;;;9.15;7.55;;;10.10;99.90;;;;;;5037731;28;20048;-43
2023/04/10 01:41:18;;;;;;;8.10;7.07;;;10.10;99.90;;;;;;5041863;28;20022;-43
2023/04/10 01:43:48;;;;;;;9.75;6.75;;;10.10;99.90;;;;;;5041924;28;20023;-43
2023/04/10 01:46:15;;;;;;;8.55;7.22;;;10.10;99.90;;;;;;5042292;28;20021;-43
2023/04/10 01:48:41;;;;;;;8.07;6.68;;;10.10;99.90;;;;;;5040840;28;20049;-43
2023/04/10 01:51:09;;;;;;;7.68;6.57;;;10.10;99.90;;;;;;5042528;28;20060;-44
2023/04/10 01:53:35;;;;;;;8.18;6.70;;;10.10;99.90;;;;;;5042032;28;20061;-44
2023/04/10 01:56:02;;;;;;;7.75;6.60;;;10.10;99.90;;;;;;5041323;28;20214;-44
2023/04/10 01:58:27;;;;;;;7.00;6.18;;;10.10;99.90;;;;;;5042321;28;20544;-43
2023/04/10 02:00:53;;;;;;;7.20;6.40;;;10.10;99.90;;;;;;5042414;28;20029;-43
2023/04/10 02:03:27;;;;;;;9.77;6.88;;;10.20;99.90;;;;;;5041789;28;20116;-43
2023/04/10 02:06:20;;;;;;;7.97;6.47;;;10.20;99.90;;;;;;5030945;28;20666;-43
2023/04/10 02:09:08;;;;;;;9.50;6.57;;;10.20;99.90;;;;;;5041143;28;20031;-43
2023/04/10 02:11:43;;;;;;;7.18;6.30;;;10.20;99.90;;;;;;5042633;28;20033;-44
2023/04/10 02:14:15;;;;;;;8.07;7.18;;;10.20;99.90;;;;;;5042179;28;20033;-43
2023/04/10 02:16:42;;;;;;;7.07;6.38;;;10.20;99.90;;;;;;5041200;28;20502;-43
2023/04/10 02:19:09;;;;;;;8.90;7.72;;;10.10;99.90;;;;;;5041795;28;20045;-43
2023/04/10 02:21:36;;;;;;;8.65;7.25;;;10.10;99.90;;;;;;5040993;28;20033;-44
2023/04/10 02:24:02;;;;;;;9.95;7.72;;;10.10;99.90;;;;;;5040493;28;20025;-43
2023/04/10 02:26:27;;;;;;;8.05;6.82;;;10.10;99.90;;;;;;5041691;28;20041;-43
2023/04/10 02:28:53;;;;;;;9.10;7.43;;;10.00;99.90;;;;;;5041151;28;20025;-44
2023/04/10 02:31:18;;;;;;;8.30;7.38;;;10.00;99.90;;;;;;5041598;28;20025;-43
2023/04/10 02:33:44;;;;;;;8.85;6.90;;;9.90;99.90;;;;;;5042137;28;20533;-43
2023/04/10 02:36:10;;;;;;;8.80;7.07;;;9.90;99.90;;;;;;5040944;28;20382;-43
2023/04/10 02:38:35;;;;;;;9.02;7.20;;;9.90;99.90;;;;;;5041135;28;20033;-44
2023/04/10 02:41:01;;;;;;;8.32;6.97;;;9.80;99.90;;;;;;5041572;28;20563;-43
2023/04/10 02:43:26;;;;;;;9.30;6.93;;;9.80;99.90;;;;;;5041024;28;20066;-43
2023/04/10 02:45:52;;;;;;;8.77;7.03;;;9.70;99.90;;;;;;5040630;28;20033;-44
2023/04/10 02:48:17;;;;;;;10.18;7.75;;;9.70;99.90;;;;;;5040766;28;20049;-44
2023/04/10 02:50:45;;;;;;;8.18;7.18;;;9.70;99.90;;;;;;5039702;28;20109;-44
2023/04/10 02:53:12;;;;;;;8.50;7.00;;;9.70;99.90;;;;;;5040568;28;20824;-43
2023/04/10 02:55:38;;;;;;;11.00;7.90;;;9.60;99.90;;;;;;5040875;28;20537;-43
2023/04/10 02:58:04;;;;;;;10.38;7.85;;;9.60;99.90;;;;;;5039806;28;20052;-44
2023/04/10 03:00:30;;;;;;;9.75;7.22;;;9.60;99.90;;;;;;5040354;28;20049;-44
2023/04/10 03:02:55;;;;;;;7.70;6.75;;;9.60;99.90;;;;;;5040947;28;20105;-44
2023/04/10 03:05:21;;;;;;;9.27;7.40;;;9.50;99.90;;;;;;5040195;28;20028;-43
2023/04/10 03:07:46;;;;;;;9.02;6.75;;;9.50;99.90;;;;;;5040567;28;20028;-44
2023/04/10 03:10:12;;;;;;;9.82;7.70;;;9.50;99.90;;;;;;5041452;28;20041;-44
2023/04/10 03:12:43;;;;;;;8.43;7.10;;;9.50;99.90;;;;;;5039806;28;20099;-44
2023/04/10 03:15:09;;;;;;;8.48;6.95;;;9.50;99.90;;;;;;5040412;28;20720;-44
2023/04/10 03:17:35;;;;;;;7.82;6.63;;;9.40;99.90;;;;;;5039922;28;20025;-44
2023/04/10 03:20:00;;;;;;;8.65;7.10;;;9.50;99.90;;;;;;5039796;28;20703;-43
2023/04/10 03:22:28;;;;;;;7.07;6.38;;;9.50;99.90;;;;;;5040651;28;20571;-44
2023/04/10 03:24:54;;;;;;;8.88;7.22;;;9.50;99.90;;;;;;5041060;28;20044;-43
2023/04/10 03:27:20;;;;;;;8.27;6.63;;;9.40;99.90;;;;;;5040542;28;20027;-43
2023/04/10 03:29:46;;;;;;;8.93;7.00;;;9.40;99.90;;;;;;5040944;28;20480;-44
2023/04/10 03:32:11;;;;;;;10.77;7.68;;;9.40;99.90;;;;;;5040899;28;20033;-43
2023/04/10 03:34:37;;;;;;;8.70;7.07;;;9.40;99.90;;;;;;5039192;28;20060;-42
2023/04/10 03:37:02;;;;;;;8.27;6.45;;;9.40;99.90;;;;;;5040464;28;20532;-44
2023/04/10 03:39:28;;;;;;;8.30;6.93;;;9.40;99.90;;;;;;5040742;28;20048;-43
2023/04/10 03:41:53;;;;;;;9.60;7.25;;;9.40;99.90;;;;;;5039888;28;20025;-43
2023/04/10 03:44:19;;;;;;;9.15;7.60;;;9.30;99.90;;;;;;5040301;28;20049;-43
2023/04/10 03:46:44;;;;;;;10.35;7.50;;;9.30;99.90;;;;;;5038910;28;20113;-44
2023/04/10 03:49:10;;;;;;;11.57;7.38;;;9.30;99.90;;;;;;5040177;28;20039;-43
2023/04/10 03:51:36;;;;;;;9.60;7.88;;;9.30;99.90;;;;;;5040472;28;20025;-43
2023/04/10 03:54:01;;;;;;;12.15;8.23;;;9.20;99.90;;;;;;5039640;28;20384;-43
2023/04/10 03:56:27;;;;;;;8.88;7.70;;;9.20;99.90;;;;;;5040359;28;20029;-43
2023/04/10 03:58:52;;;;;;;10.70;8.40;;;9.20;99.90;;;;;;5040227;28;20037;-43
2023/04/10 04:01:18;;;;;;;10.93;8.15;;;9.20;99.90;;;;;;5040291;28;20042;-43
2023/04/10 04:03:43;;;;;;;8.88;7.78;;;9.10;99.90;;;;;;5040308;28;20025;-43
2023/04/10 04:06:09;;;;;;;9.40;7.55;;;9.10;99.90;;;;;;5039856;28;20021;-43
2023/04/10 04:08:35;;;;;;;8.85;7.15;;;9.10;99.90;;;;;;5039292;28;20036;-44
2023/04/10 04:11:01;;;;;;;9.88;7.88;;;9.10;99.90;;;;;;5040433;28;20029;-44
2023/04/10 04:13:26;;;;;;;9.75;7.78;;;9.10;99.90;;;;;;5039902;28;20582;-43
2023/04/10 04:15:52;;;;;;;8.50;7.30;;;9.00;99.90;;;;;;5039511;28;20021;-43
2023/04/10 04:18:17;;;;;;;9.13;7.32;;;9.00;99.90;;;;;;5039755;28;20044;-43
2023/04/10 04:20:43;;;;;;;10.25;7.88;;;9.00;99.90;;;;;;5039953;28;20032;-43
2023/04/10 04:23:08;;;;;;;10.35;7.90;;;9.00;99.90;;;;;;5039884;28;20045;-44
2023/04/10 04:25:34;;;;;;;9.63;7.80;;;9.00;99.90;;;;;;5039985;28;20025;-44
2023/04/10 04:28:00;;;;;;;9.60;7.60;;;9.00;99.90;;;;;;5040439;28;20033;-44
2023/04/10 04:30:25;;;;;;;10.15;8.05;;;9.00;99.90;;;;;;5039109;28;20024;-44
2023/04/10 04:32:51;;;;;;;10.27;8.68;;;9.00;99.90;;;;;;5039518;28;20377;-43
2023/04/10 04:35:16;;;;;;;10.38;8.10;;;9.00;99.90;;;;;;5040082;28;20025;-43
2023/04/10 04:37:42;;;;;;;9.73;7.63;;;9.00;99.90;;;;;;5039032;28;20774;-43
2023/04/10 04:40:08;;;;;;;8.80;7.38;;;9.00;99.90;;;;;;5039232;28;20793;-43
2023/04/10 04:42:34;;;;;;;9.00;7.80;;;9.00;99.90;;;;;;5039580;28;20029;-44
2023/04/10 04:45:00;;;;;;;10.20;8.38;;;8.90;99.90;;;;;;5038822;28;20184;-44
2023/04/10 04:47:25;;;;;;;9.95;8.10;;;9.00;99.90;;;;;;5039829;28;20041;-43
2023/04/10 04:49:51;;;;;;;13.10;9.23;;;8.90;99.90;;;;;;5043086;28;20701;-44
2023/04/10 04:52:16;;;;;;;10.75;8.43;;;8.90;99.90;;;;;;5043195;28;20850;-44
2023/04/10 04:54:42;;;;;;;9.95;8.27;;;8.90;99.90;;;;;;5042984;28;20095;-43
2023/04/10 04:57:08;;;;;;;9.85;8.00;;;8.90;99.90;;;;;;5043316;28;20021;-43
2023/04/10 04:59:34;;;;;;;8.98;7.80;;;8.90;99.90;;;;;;5043290;28;20036;-44
2023/04/10 05:01:59;;;;;;;8.88;7.97;;;8.90;99.90;;;;;;5043427;28;20079;-43
2023/04/10 05:04:25;;;;;;;9.30;7.80;;;8.90;99.90;;;;;;5042034;28;20033;-43
2023/04/10 05:06:50;;;;;;;11.52;8.50;;;9.00;99.90;;;;;;5043284;28;20025;-43
2023/04/10 05:09:16;;;;;;;9.73;7.88;;;9.00;99.90;;;;;;5043321;28;20036;-44
2023/04/10 05:11:41;;;;;;;11.60;8.45;;;8.90;99.90;;;;;;5042030;28;20043;-44
2023/04/10 05:14:07;;;;;;;9.52;7.90;;;9.00;99.90;;;;;;5043300;28;20116;-43
2023/04/10 05:16:32;;;;;;;10.32;8.75;;;9.00;99.90;;;;;;5041948;28;20032;-43
2023/04/10 05:19:01;;;;;;;10.80;8.05;;;9.00;99.90;;;;;;5042119;28;20044;-43
2023/04/10 05:21:26;;;;;;;11.10;7.88;;;9.00;99.90;;;;;;5042886;28;20025;-43
2023/04/10 05:23:52;;;;;;;9.77;8.38;;;9.00;99.90;;;;;;5043190;28;20028;-44
2023/04/10 05:26:17;;;;;;;10.32;8.13;;;9.00;99.90;;;;;;5041723;28;20025;-43
2023/04/10 05:28:43;;;;;;;10.38;7.90;;;9.00;99.90;;;;;;5042445;28;20025;-44
2023/04/10 05:31:08;;;;;;;12.48;9.18;;;9.00;99.90;;;;;;5042601;28;20069;-44
2023/04/10 05:33:34;;;;;;;10.35;8.65;;;9.00;99.90;;;;;;5042133;28;20465;-44
2023/04/10 05:35:59;;;;;;;11.13;9.20;;;9.00;99.90;;;;;;5042827;28;20021;-44
2023/04/10 05:38:25;;;;;;;11.52;7.75;;;9.10;99.90;;;;;;5042686;28;20082;-44
2023/04/10 05:40:50;;;;;;;9.18;7.72;;;9.10;99.90;;;;;;5042305;28;20028;-44
2023/04/10 05:43:16;;;;;;;10.10;7.85;;;9.10;99.90;;;;;;5042726;28;20029;-44
2023/04/10 05:45:45;;;;;;;10.20;8.63;;;9.10;99.90;;;;;;5041836;28;20435;-44
2023/04/10 05:48:10;;;;;;;11.40;8.85;;;9.20;99.90;;;;;;5041291;28;20053;-44
2023/04/10 05:50:36;;;;;;;10.13;8.02;;;9.20;99.90;;;;;;5041566;28;20035;-43
2023/04/10 05:53:01;;;;;;;9.45;7.97;;;9.20;99.90;;;;;;5042132;28;20032;-44
2023/04/10 05:55:30;;;;;;;10.50;8.60;;;9.20;99.90;;;;;;5041399;28;20017;-44
2023/04/10 05:57:55;;;;;;;12.32;8.60;;;9.30;99.90;;;;;;5041429;28;20044;-44
2023/04/10 06:00:21;;;;;;;10.40;8.15;;;9.30;99.90;;;;;;5041546;28;20029;-43
2023/04/10 06:02:46;;;;;;;12.00;8.45;;;9.30;99.90;;;;;;5041512;28;20184;-44
2023/04/10 06:05:12;;;;;;;10.25;7.82;;;9.40;99.90;;;;;;5042271;28;20029;-44
2023/04/10 06:07:37;;;;;;;10.57;8.50;;;9.40;99.90;;;;;;5040718;28;20021;-44
2023/04/10 06:10:03;;;;;;;9.98;8.00;;;9.40;99.90;;;;;;5041468;28;20025;-44
2023/04/10 06:12:29;;;;;;;9.60;8.23;;;9.50;99.90;;;;;;5041100;28;20028;-44
2023/04/10 06:14:55;;;;;;;9.82;7.95;;;9.50;99.90;;;;;;5041288;28;20029;-43
2023/04/10 06:17:20;;;;;;;9.65;7.85;;;9.60;99.90;;;;;;5041785;28;20053;-44
2023/04/10 06:19:46;;;;;;;8.85;7.70;;;9.60;99.90;;;;;;5041650;28;20028;-44
2023/04/10 06:22:12;;;;;;;9.38;7.65;;;9.70;99.90;;;;;;5041557;28;20042;-44
2023/04/10 06:24:37;;;;;;;9.65;8.30;;;9.70;99.90;;;;;;5040968;28;20467;-45
2023/04/10 06:27:03;;;;;;;8.20;7.00;;;9.80;99.90;;;;;;5041138;28;20758;-44
2023/04/10 06:29:28;;;;;;;8.00;6.82;;;9.90;99.90;;;;;;5040178;28;20064;-44
2023/04/10 06:31:54;;;;;;;8.88;7.70;;;9.90;99.90;;;;;;5041622;28;20021;-43
2023/04/10 06:34:20;;;;;;;9.27;7.53;;;10.00;99.90;;;;;;5041608;28;20024;-43
2023/04/10 06:36:45;;;;;;;10.23;7.70;;;10.10;99.90;;;;;;5040792;28;20025;-43
2023/04/10 06:39:11;;;;;;;8.35;7.13;;;10.20;99.90;;;;;;5041312;28;20040;-43
2023/04/10 06:41:36;;;;;;;9.23;7.85;;;10.20;99.90;;;;;;5041507;28;20099;-44
2023/04/10 06:44:02;;;;;;;9.88;7.53;;;10.30;99.90;;;;;;5041323;28;20844;-44
2023/04/10 06:46:27;;;;;;;8.15;6.90;;;10.30;99.90;;;;;;5041197;28;20033;-44
2023/04/10 06:48:53;;;;;;;9.05;7.78;;;10.40;99.90;;;;;;5040283;28;20116;-43
2023/04/10 06:51:18;;;;;;;10.23;7.95;;;10.40;99.90;;;;;;5041105;28;20546;-44
2023/04/10 06:53:44;;;;;;;8.77;7.75;;;10.50;99.90;;;;;;5040453;28;20037;-44
2023/04/10 06:56:10;;;;;;;10.40;7.90;;;10.50;99.90;;;;;;5040936;28;20032;-44
2023/04/10 06:58:35;;;;;;;7.80;6.47;;;10.60;99.90;;;;;;5040101;28;20036;-44
2023/04/10 07:01:03;;;;;;;8.63;7.28;;;10.70;99.90;;;;;;5040778;28;20029;-43
2023/04/10 07:03:29;;;;;;;8.93;7.28;;;10.80;99.90;;;;;;5041009;28;20024;-44
2023/04/10 07:05:55;;;;;;;8.77;7.43;;;10.80;99.90;;;;;;5029151;28;20033;-43
2023/04/10 07:08:21;;;;;;;9.35;7.93;;;10.90;99.90;;;;;;5040935;28;20099;-44
2023/04/10 07:10:46;;;;;;;8.43;6.93;;;11.00;99.90;;;;;;5038608;28;20145;-44
2023/04/10 07:13:12;;;;;;;8.43;6.97;;;11.00;99.90;;;;;;5041048;28;20861;-44
2023/04/10 07:15:40;;;;;;;10.10;7.45;;;11.10;99.90;;;;;;5040517;28;20872;-44
2023/04/10 07:18:06;;;;;;;9.05;7.75;;;11.20;99.90;;;;;;5039382;28;20041;-46
2023/04/10 07:20:31;;;;;;;8.50;7.28;;;11.30;99.90;;;;;;5040204;28;20167;-43
2023/04/10 07:22:57;;;;;;;8.85;7.55;;;11.40;99.90;;;;;;5040558;28;20933;-44
2023/04/10 07:25:23;;;;;;;9.55;8.05;;;11.50;99.90;;;;;;5039617;28;20067;-45
2023/04/10 07:27:48;;;;;;;8.18;7.18;;;11.50;99.90;;;;;;5040100;28;20041;-43
2023/04/10 07:30:14;;;;;;;9.95;7.72;;;11.60;99.90;;;;;;5040995;28;20082;-44
2023/04/10 07:32:40;;;;;;;8.75;6.85;;;11.60;99.90;;;;;;5039527;28;20040;-44
2023/04/10 07:35:06;;;;;;;9.35;8.20;;;11.70;99.90;;;;;;5040745;28;20483;-44
2023/04/10 07:37:32;;;;;;;8.80;6.97;;;11.70;99.90;;;;;;5039956;28;20032;-44
2023/04/10 07:39:57;;;;;;;9.95;7.85;;;11.70;99.90;;;;;;5039839;28;20025;-44
2023/04/10 07:42:23;;;;;;;8.52;7.43;;;11.80;99.90;;;;;;5040353;28;20721;-44
2023/04/10 07:44:49;;;;;;;9.23;7.07;;;11.80;99.90;;;;;;5040178;28;20465;-44
2023/04/10 07:47:14;;;;;;;9.02;7.78;;;11.90;99.90;;;;;;5039720;28;20670;-45
2023/04/10 07:49:46;;;;;;;7.63;6.82;;;11.90;99.90;;;;;;5039476;28;20037;-43
2023/04/10 07:52:11;;;;;;;8.68;7.35;;;12.00;99.90;;;;;;5039861;28;20539;-44
2023/04/10 07:54:37;;;;;;;8.10;6.80;;;12.00;99.90;;;;;;5038293;28;20036;-43
2023/04/10 07:57:02;;;;;;;8.10;6.97;;;12.10;99.90;;;;;;5039734;28;20028;-43
2023/04/10 07:59:28;;;;;;;7.78;6.68;;;12.10;99.90;;;;;;5040580;28;20044;-44
2023/04/10 08:01:54;;;;;;;8.95;7.03;;;12.10;99.90;;;;;;5038983;28;20429;-44
2023/04/10 08:04:20;;;;;;;8.68;7.32;;;12.20;99.90;;;;;;5039860;28;20483;-44
2023/04/10 08:06:45;;;;;;;8.88;7.60;;;12.20;99.90;;;;;;5039652;28;20025;-44
2023/04/10 08:09:11;;;;;;;7.10;6.35;;;12.20;99.90;;;;;;5039334;28;20017;-44
2023/04/10 08:11:36;;;;;;;8.48;7.05;;;12.20;99.90;;;;;;5039178;28;20140;-44
2023/04/10 08:14:04;;;;;;;7.13;6.43;;;12.20;99.90;;;;;;5039559;28;20516;-44
2023/04/10 08:16:32;;;;;;;8.23;7.00;;;12.30;99.90;;;;;;5040292;28;20086;-43
2023/04/10 08:18:59;;;;;;;8.93;6.80;;;12.40;99.90;;;;;;5039997;28;20648;-44
2023/04/10 08:21:26;;;;;;;5.93;5.35;;;12.40;99.90;;;;;;5040318;28;20029;-43
2023/04/10 08:23:56;;;;;;;7.28;6.20;;;12.60;99.90;;;;;;5043465;28;20043;-43
2023/04/10 08:26:22;;;;;;;6.97;6.28;;;12.70;99.90;;;;;;5044139;28;20024;-43
2023/04/10 08:28:49;;;;;;;7.05;6.35;;;12.80;99.90;;;;;;5044235;28;20059;-44
2023/04/10 08:31:19;;;;;;;7.72;6.93;;;12.90;99.90;;;;;;5044212;28;20464;-44
2023/04/10 08:33:45;;;;;;;8.05;6.45;;;13.10;99.90;;;;;;5043013;28;20021;-44
2023/04/10 08:36:12;;;;;;;8.68;6.63;;;13.20;99.90;;;;;;5042999;28;20017;-44
2023/04/10 08:38:38;;;;;;;6.38;5.63;;;13.30;99.90;;;;;;5042958;28;20033;-44
2023/04/10 08:41:05;;;;;;;7.90;6.40;;;13.30;99.90;;;;;;5043980;28;20169;-43
2023/04/10 08:43:31;;;;;;;8.63;7.18;;;13.40;99.60;;;;;;5043443;28;20025;-45
2023/04/10 08:45:57;;;;;;;7.65;6.78;;;13.50;98.80;;;;;;5043367;28;20044;-44
2023/04/10 08:48:30;;;;;;;7.03;6.13;;;13.60;98.70;;;;;;5043477;28;20138;-43
2023/04/10 08:51:00;;;;;;;7.78;6.82;;;13.60;98.70;;;;;;5042269;28;20025;-43
2023/04/10 08:53:29;;;;;;;7.60;6.30;;;13.70;98.50;;;;;;5043327;28;20452;-43
2023/04/10 08:55:55;;;;;;;8.27;7.30;;;13.80;98.60;;;;;;5023442;28;20065;-44
2023/04/10 08:58:22;;;;;;;6.60;5.60;;;13.90;98.40;;;;;;5037065;28;20147;-43
2023/04/10 09:00:48;;;;;;;8.55;6.63;;;14.00;98.50;;;;;;5043053;28;20033;-44
2023/04/10 09:03:14;;;;;;;8.02;6.85;;;14.10;98.40;;;;;;5042309;28;20037;-44
2023/04/10 09:05:43;;;;;;;7.03;6.32;;;14.20;98.10;;;;;;5043243;28;20037;-43
2023/04/10 09:08:09;;;;;;;6.53;5.82;;;14.20;98.00;;;;;;5042421;28;20033;-43
2023/04/10 09:10:35;;;;;;;7.22;6.20;;;14.40;98.00;;;;;;5042126;28;20115;-44
2023/04/10 09:13:01;;;;;;;6.53;5.82;;;14.50;98.00;;;;;;5042559;28;20016;-44
2023/04/10 09:15:26;;;;;;;5.38;4.80;;;14.50;98.00;;;;;;5042875;28;20106;-44
2023/04/10 09:18:00;;;;;;;6.10;5.40;;;14.60;97.90;;;;;;5041978;28;20421;-44
2023/04/10 09:20:30;;;;;;;6.68;6.05;;;14.70;97.80;;;;;;5031817;28;20120;-45
2023/04/10 09:22:55;;;;;;;6.90;6.20;;;14.70;97.30;;;;;;5042157;28;20017;-44
2023/04/10 09:25:42;;;;;;;7.22;5.85;;;14.70;97.20;;;;;;5041896;28;20036;-44
2023/04/10 09:28:08;;;;;;;7.30;6.22;;;14.80;97.30;;;;;;5042376;28;20035;-44
2023/04/10 09:30:39;;;;;;;5.82;5.28;;;14.80;97.00;;;;;;5042299;28;20209;-45
2023/04/10 09:33:29;;;;;;;5.97;5.38;;;14.90;97.20;;;;;;5041491;28;20039;-44
2023/04/10 09:35:59;;;;;;;6.22;5.63;;;15.00;97.10;;;;;;5043174;28;20096;-44
2023/04/10 09:38:24;;;;;;;5.45;4.95;;;15.10;96.50;;;;;;5042573;28;20033;-44
2023/04/10 09:41:06;;;;;;;6.05;5.45;;;15.10;96.60;;;;;;5042820;28;20477;-44
2023/04/10 09:43:31;;;;;;;6.93;5.95;;;15.10;95.80;;;;;;5042364;28;20040;-44
2023/04/10 09:45:57;;;;;;;5.65;5.07;;;15.10;95.70;;;;;;5041673;28;20017;-43
2023/04/10 09:48:25;;;;;;;7.05;6.30;;;15.10;95.90;;;;;;5042606;28;20076;-43
2023/04/10 09:50:51;;;;;;;6.63;5.90;;;15.10;95.80;;;;;;5039454;28;20137;-43
2023/04/10 09:53:18;;;;;;;5.93;5.15;;;15.10;95.80;;;;;;5041563;28;20383;-44
2023/04/10 09:55:45;;;;;;;7.78;5.60;;;15.00;96.00;;;;;;5041295;28;20025;-44
2023/04/10 09:58:11;;;;;;;6.15;5.55;;;15.00;96.10;;;;;;5041956;28;20037;-44
2023/04/10 10:00:44;;;;;;;6.03;5.38;;;15.10;96.10;;;;;;5041270;28;20024;-44
2023/04/10 10:03:12;;;;;;;5.47;4.97;;;15.10;96.20;;;;;;5021850;28;20029;-44
2023/04/10 10:05:43;;;;;;;5.03;4.53;;;15.10;96.20;;;;;;5035825;28;20055;-44
2023/04/10 10:08:11;;;;;;;7.95;5.20;;;15.20;96.20;;;;;;5040938;28;20035;-44
2023/04/10 10:10:45;;;;;;;6.57;4.60;;;15.20;96.10;;;;;;5041398;28;20037;-44
2023/04/10 10:13:18;;;;;;;5.13;4.63;;;15.20;96.00;;;;;;5041203;28;20025;-45
2023/04/10 10:15:50;;;;;;;5.15;4.65;;;15.30;95.90;;;;;;5040699;28;20025;-44
2023/04/10 10:18:34;;;;;;;;;;;15.40;95.90;;;;;;5041088;28;20799;-44
2023/04/10 10:21:02;;;;;;;4.30;3.90;;;15.40;95.90;;;;;;5040398;28;20023;-45
2023/04/10 10:23:28;;;;;;;4.75;4.28;;;15.40;95.80;;;;;;5040971;28;20096;-44
2023/04/10 10:25:54;;;;;;;4.60;4.15;;;15.40;95.70;;;;;;5040619;28;20838;-44
2023/04/10 10:28:21;;;;;;;6.10;5.18;;;15.50;95.80;;;;;;5041520;28;20162;-44
2023/04/10 10:30:48;;;;;;;4.93;4.43;;;15.60;95.80;;;;;;5040332;28;20029;-44
2023/04/10 10:33:14;;;;;;;4.93;4.47;;;15.60;95.60;;;;;;5041371;28;20063;-45
2023/04/10 10:35:40;;;;;;;5.97;4.97;;;15.70;95.50;;;;;;5040560;28;20104;-45
2023/04/10 10:38:06;;;;;;;4.50;4.10;;;15.70;95.40;;;;;;5041473;28;20079;-45
2023/04/10 10:40:40;;;;;;;4.95;4.45;;;15.80;95.40;;;;;;5041097;28;20043;-44
2023/04/10 10:43:47;;;;;;;5.20;4.65;;;15.90;95.20;;;;;;5041111;28;20028;-43
2023/04/10 10:46:35;;;;;;;4.85;4.38;;;15.90;95.10;;;;;;5036552;28;20037;-44
2023/04/10 10:49:01;;;;;;;5.20;4.40;;;16.00;95.10;;;;;;5040218;28;20084;-44
2023/04/10 10:51:49;;;;;;;4.80;4.30;;;16.00;94.90;;;;;;5041327;28;20117;-44
2023/04/10 10:54:30;;;;;;;5.38;4.88;;;16.10;95.00;;;;;;5041334;28;20033;-44
2023/04/10 10:56:56;;;;;;;5.00;4.45;;;16.20;94.70;;;;;;5040098;28;20622;-44
2023/04/10 10:59:46;;;;;;;5.45;4.95;;;16.20;94.60;;;;;;5041138;28;20123;-44
2023/04/10 11:02:15;;;;;;;4.60;4.20;;;16.30;94.60;;;;;;5041171;28;20029;-43
2023/04/10 11:04:41;;;;;;;4.85;4.45;;;16.40;94.50;;;;;;5039885;28;20140;-44
2023/04/10 11:07:07;;;;;;;4.40;4.00;;;16.50;94.40;;;;;;5039961;28;20362;-45
2023/04/10 11:09:52;;;;;;;4.53;4.10;;;16.60;94.40;;;;;;5040371;28;20590;-44
2023/04/10 11:12:24;;;;;;;4.03;3.72;;;16.70;94.30;;;;;;5040431;28;20025;-44
2023/04/10 11:14:58;;;;;;;4.60;4.20;;;16.70;94.10;;;;;;5040215;28;20032;-44
2023/04/10 11:17:49;;;;;;;5.00;4.50;;;16.80;93.80;;;;;;5039906;28;20013;-44
2023/04/10 11:20:16;;;;;;;4.78;4.28;;;16.80;93.50;;;;;;5040986;28;20785;-44
2023/04/10 11:23:11;;;;;;;4.68;4.25;;;16.90;93.20;;;;;;5040344;28;20503;-43
2023/04/10 11:25:54;;;;;;;5.18;4.68;;;16.90;93.20;;;;;;5039836;28;20432;-44
2023/04/10 11:28:40;;;;;;;4.85;4.40;;;17.00;93.30;;;;;;5040884;28;20075;-44
2023/04/10 11:31:22;;;;;;;4.78;4.38;;;17.10;93.30;;;;;;5019279;28;20095;-44
2023/04/10 11:33:50;;;;;;;5.68;4.85;;;17.20;93.00;;;;;;5036636;28;20083;-44
2023/04/10 11:36:16;;;;;;;4.93;4.43;;;17.20;92.30;;;;;;5020654;28;20484;-44
2023/04/10 11:39:07;;;;;;;4.20;3.80;;;17.20;92.10;;;;;;5033815;28;20148;-44
2023/04/10 11:41:38;;;;;;;5.88;4.10;;;17.20;92.20;;;;;;5020025;28;20117;-43
2023/04/10 11:44:09;;;;;;;4.70;4.20;;;17.10;92.20;;;;;;5034648;28;20021;-44
2023/04/10 11:46:39;;;;;;;4.47;4.07;;;17.10;92.40;;;;;;5039018;28;20029;-44
2023/04/10 11:49:06;;;;;;;4.80;4.40;;;17.00;92.40;;;;;;5040109;28;20382;-45
2023/04/10 11:51:32;;;;;;;5.93;4.55;;;17.00;92.40;;;;;;5040066;28;20351;-45
2023/04/10 11:54:16;;;;;;;4.60;4.20;;;17.00;92.50;;;;;;5038804;28;20094;-44
2023/04/10 11:56:44;;;;;;;5.30;4.80;;;17.10;92.50;;;;;;5039719;28;20104;-44
2023/04/10 11:59:12;;;;;;;5.05;4.50;;;17.20;92.00;;;;;;5039302;28;20044;-44
2023/04/10 12:01:38;;;;;;;4.82;4.30;;;17.30;92.00;;;;;;5040672;28;20091;-44
2023/04/10 12:04:13;;;;;;;5.07;4.35;;;17.40;91.80;;;;;;5040020;28;20024;-44
2023/04/10 12:06:46;;;;;;;4.50;4.10;;;17.40;91.80;;;;;;5039750;28;20355;-45
2023/04/10 12:09:14;;;;;;;4.65;4.25;;;17.60;92.00;;;;;;5040160;28;20433;-44
2023/04/10 12:11:58;;;;;;;4.78;3.67;;;17.70;91.90;;;;;;5039826;28;20465;-43
2023/04/10 12:14:33;;;;;;;4.10;3.70;;;17.80;92.00;;;;;;5038900;28;20143;-45
2023/04/10 12:16:59;;;;;;;4.82;4.38;;;17.90;92.00;;;;;;5039840;28;20032;-44
2023/04/10 12:19:25;;;;;;;4.90;4.15;;;18.00;91.90;;;;;;5039336;28;20037;-43
2023/04/10 12:21:51;;;;;;;4.90;4.10;;;18.10;91.70;;;;;;5039543;28;20483;-44
2023/04/10 12:24:48;;;;;;;6.28;3.80;;;18.10;91.40;;;;;;5040084;28;20331;-45
2023/04/10 12:27:25;;;;;;;4.18;3.78;;;18.20;91.30;;;;;;5039546;28;20718;-43
2023/04/10 12:29:52;;;;;;;3.42;3.05;;;18.20;90.90;;;;;;5039642;28;20485;-44
2023/04/10 12:32:19;;;;;;;4.25;3.63;;;18.20;90.80;;;;;;5040301;28;20025;-44
2023/04/10 12:34:52;;;;;;;3.35;3.05;;;18.20;90.30;;;;;;5039014;28;20140;-43
2023/04/10 12:37:19;;;;;;;3.20;2.90;;;18.20;90.10;;;;;;5041074;28;20113;-45
2023/04/10 12:39:45;;;;;;;3.50;3.20;;;18.10;89.70;;;;;;5040055;28;20056;-43
2023/04/10 12:42:22;;;;;;;2.92;2.72;;;18.10;89.50;;;;;;5039578;28;20086;-45
2023/04/10 12:45:00;;;;;;;2.92;2.72;;;18.10;90.00;;;;;;5039855;28;20120;-44
2023/04/10 12:47:27;;;;;;;4.88;3.08;;;18.10;90.10;;;;;;5029635;28;20045;-45
2023/04/10 12:50:10;;;;;;;3.70;2.95;;;18.30;90.00;;;;;;5039128;28;20924;-44
2023/04/10 12:52:37;;;;;;;3.08;2.78;;;18.30;90.00;;;;;;5029762;28;20075;-44
2023/04/10 12:55:12;;;;;;;3.08;2.78;;;18.40;90.00;;;;;;5039159;28;20076;-44